<?xml version="1.0" encoding="UTF-8" standalone="no" ?>
<gpx version="1.1" creator="Visorando" xmlns:xsi="http://www.w3.org/2001/XMLSchema-instance" xmlns="http://www.topografix.com/GPX/1/1" xsi:schemaLocation="http://www.topografix.com/GPX/1/1 http://www.topografix.com/GPX/1/1/gpx.xsd">
 <metadata>
  <name>Randonnée du 31/08/2020 à 11:47</name>
  <link href="https://www.visorando.com/randonnee-/3946716">
   <text>https://www.visorando.com/randonnee-/3946716</text>
  </link>
 </metadata>
 <trk>
  <name>Randonnée du 31/08/2020 à 11:47</name>
  <trkseg>
   <trkpt lat="47.880246" lon="6.766776">
    <ele>510</ele>
    <time>2020-08-31T11:47:50+02:00</time>
   </trkpt>
   <trkpt lat="47.880591" lon="6.767162">
    <ele>509</ele>
    <time>2020-08-31T11:47:55+02:00</time>
   </trkpt>
   <trkpt lat="47.88062" lon="6.767634">
    <ele>515</ele>
    <time>2020-08-31T11:48:00+02:00</time>
   </trkpt>
   <trkpt lat="47.880677" lon="6.767892">
    <ele>519</ele>
    <time>2020-08-31T11:48:05+02:00</time>
   </trkpt>
   <trkpt lat="47.880764" lon="6.768192">
    <ele>525</ele>
    <time>2020-08-31T11:48:10+02:00</time>
   </trkpt>
   <trkpt lat="47.880936" lon="6.768836">
    <ele>539</ele>
    <time>2020-08-31T11:48:15+02:00</time>
   </trkpt>
   <trkpt lat="47.881311" lon="6.768578">
    <ele>536</ele>
    <time>2020-08-31T11:48:20+02:00</time>
   </trkpt>
   <trkpt lat="47.881771" lon="6.768664">
    <ele>537</ele>
    <time>2020-08-31T11:48:25+02:00</time>
   </trkpt>
   <trkpt lat="47.881512" lon="6.769007">
    <ele>547</ele>
    <time>2020-08-31T11:48:30+02:00</time>
   </trkpt>
   <trkpt lat="47.881829" lon="6.769308">
    <ele>553</ele>
    <time>2020-08-31T11:48:35+02:00</time>
   </trkpt>
   <trkpt lat="47.881311" lon="6.769909">
    <ele>563</ele>
    <time>2020-08-31T11:48:40+02:00</time>
   </trkpt>
   <trkpt lat="47.881454" lon="6.770381">
    <ele>576</ele>
    <time>2020-08-31T11:48:45+02:00</time>
   </trkpt>
   <trkpt lat="47.881483" lon="6.771024">
    <ele>589</ele>
    <time>2020-08-31T11:48:50+02:00</time>
   </trkpt>
   <trkpt lat="47.881253" lon="6.771539">
    <ele>589</ele>
    <time>2020-08-31T11:48:55+02:00</time>
   </trkpt>
   <trkpt lat="47.881023" lon="6.771926">
    <ele>584</ele>
    <time>2020-08-31T11:49:00+02:00</time>
   </trkpt>
   <trkpt lat="47.88085" lon="6.772312">
    <ele>580</ele>
    <time>2020-08-31T11:49:05+02:00</time>
   </trkpt>
   <trkpt lat="47.880908" lon="6.773041">
    <ele>582</ele>
    <time>2020-08-31T11:49:10+02:00</time>
   </trkpt>
   <trkpt lat="47.880936" lon="6.774071">
    <ele>578</ele>
    <time>2020-08-31T11:49:15+02:00</time>
   </trkpt>
   <trkpt lat="47.881167" lon="6.775101">
    <ele>581</ele>
    <time>2020-08-31T11:49:20+02:00</time>
   </trkpt>
   <trkpt lat="47.881512" lon="6.77626">
    <ele>587</ele>
    <time>2020-08-31T11:49:25+02:00</time>
   </trkpt>
   <trkpt lat="47.881685" lon="6.776775">
    <ele>590</ele>
    <time>2020-08-31T11:49:30+02:00</time>
   </trkpt>
   <trkpt lat="47.882088" lon="6.77729">
    <ele>598</ele>
    <time>2020-08-31T11:49:35+02:00</time>
   </trkpt>
   <trkpt lat="47.882433" lon="6.777805">
    <ele>601</ele>
    <time>2020-08-31T11:49:40+02:00</time>
   </trkpt>
   <trkpt lat="47.882433" lon="6.778578">
    <ele>597</ele>
    <time>2020-08-31T11:49:45+02:00</time>
   </trkpt>
   <trkpt lat="47.882548" lon="6.779007">
    <ele>599</ele>
    <time>2020-08-31T11:49:50+02:00</time>
   </trkpt>
   <trkpt lat="47.882836" lon="6.779264">
    <ele>607</ele>
    <time>2020-08-31T11:49:55+02:00</time>
   </trkpt>
   <trkpt lat="47.882807" lon="6.779994">
    <ele>606</ele>
    <time>2020-08-31T11:50:00+02:00</time>
   </trkpt>
   <trkpt lat="47.882865" lon="6.780208">
    <ele>607</ele>
    <time>2020-08-31T11:50:05+02:00</time>
   </trkpt>
   <trkpt lat="47.883095" lon="6.780208">
    <ele>609</ele>
    <time>2020-08-31T11:50:10+02:00</time>
   </trkpt>
   <trkpt lat="47.883412" lon="6.779693">
    <ele>605</ele>
    <time>2020-08-31T11:50:15+02:00</time>
   </trkpt>
   <trkpt lat="47.883527" lon="6.778964">
    <ele>605</ele>
    <time>2020-08-31T11:50:20+02:00</time>
   </trkpt>
   <trkpt lat="47.883699" lon="6.778449">
    <ele>600</ele>
    <time>2020-08-31T11:50:25+02:00</time>
   </trkpt>
   <trkpt lat="47.883757" lon="6.777505">
    <ele>596</ele>
    <time>2020-08-31T11:50:30+02:00</time>
   </trkpt>
   <trkpt lat="47.883843" lon="6.776475">
    <ele>593</ele>
    <time>2020-08-31T11:50:35+02:00</time>
   </trkpt>
   <trkpt lat="47.88393" lon="6.775573">
    <ele>593</ele>
    <time>2020-08-31T11:50:40+02:00</time>
   </trkpt>
   <trkpt lat="47.883843" lon="6.775144">
    <ele>596</ele>
    <time>2020-08-31T11:50:45+02:00</time>
   </trkpt>
   <trkpt lat="47.883843" lon="6.774672">
    <ele>596</ele>
    <time>2020-08-31T11:50:50+02:00</time>
   </trkpt>
   <trkpt lat="47.883728" lon="6.774157">
    <ele>599</ele>
    <time>2020-08-31T11:50:55+02:00</time>
   </trkpt>
   <trkpt lat="47.883699" lon="6.773299">
    <ele>598</ele>
    <time>2020-08-31T11:51:00+02:00</time>
   </trkpt>
   <trkpt lat="47.883757" lon="6.772355">
    <ele>598</ele>
    <time>2020-08-31T11:51:05+02:00</time>
   </trkpt>
   <trkpt lat="47.883527" lon="6.772226">
    <ele>601</ele>
    <time>2020-08-31T11:51:10+02:00</time>
   </trkpt>
   <trkpt lat="47.883354" lon="6.772226">
    <ele>603</ele>
    <time>2020-08-31T11:51:15+02:00</time>
   </trkpt>
   <trkpt lat="47.88321" lon="6.772569">
    <ele>608</ele>
    <time>2020-08-31T11:51:20+02:00</time>
   </trkpt>
   <trkpt lat="47.882894" lon="6.772612">
    <ele>614</ele>
    <time>2020-08-31T11:51:25+02:00</time>
   </trkpt>
   <trkpt lat="47.882635" lon="6.772269">
    <ele>613</ele>
    <time>2020-08-31T11:51:30+02:00</time>
   </trkpt>
   <trkpt lat="47.882433" lon="6.772784">
    <ele>617</ele>
    <time>2020-08-31T11:51:35+02:00</time>
   </trkpt>
   <trkpt lat="47.882404" lon="6.77287">
    <ele>618</ele>
    <time>2020-08-31T11:51:40+02:00</time>
   </trkpt>
   <trkpt lat="47.882548" lon="6.772999">
    <ele>619</ele>
    <time>2020-08-31T11:51:45+02:00</time>
   </trkpt>
   <trkpt lat="47.882318" lon="6.773471">
    <ele>620</ele>
    <time>2020-08-31T11:51:50+02:00</time>
   </trkpt>
   <trkpt lat="47.882174" lon="6.773771">
    <ele>623</ele>
    <time>2020-08-31T11:51:55+02:00</time>
   </trkpt>
   <trkpt lat="47.882491" lon="6.773986">
    <ele>620</ele>
    <time>2020-08-31T11:52:00+02:00</time>
   </trkpt>
   <trkpt lat="47.88275" lon="6.774243">
    <ele>617</ele>
    <time>2020-08-31T11:52:05+02:00</time>
   </trkpt>
   <trkpt lat="47.88298" lon="6.774629">
    <ele>614</ele>
    <time>2020-08-31T11:52:10+02:00</time>
   </trkpt>
   <trkpt lat="47.883239" lon="6.775531">
    <ele>611</ele>
    <time>2020-08-31T11:52:15+02:00</time>
   </trkpt>
   <trkpt lat="47.883296" lon="6.776174">
    <ele>608</ele>
    <time>2020-08-31T11:52:20+02:00</time>
   </trkpt>
   <trkpt lat="47.883095" lon="6.776904">
    <ele>610</ele>
    <time>2020-08-31T11:52:25+02:00</time>
   </trkpt>
   <trkpt lat="47.883095" lon="6.777719">
    <ele>609</ele>
    <time>2020-08-31T11:52:30+02:00</time>
   </trkpt>
   <trkpt lat="47.883095" lon="6.777891">
    <ele>609</ele>
    <time>2020-08-31T11:52:35+02:00</time>
   </trkpt>
   <trkpt lat="47.882807" lon="6.77729">
    <ele>610</ele>
    <time>2020-08-31T11:52:40+02:00</time>
   </trkpt>
   <trkpt lat="47.882577" lon="6.776818">
    <ele>618</ele>
    <time>2020-08-31T11:52:45+02:00</time>
   </trkpt>
   <trkpt lat="47.882433" lon="6.776346">
    <ele>625</ele>
    <time>2020-08-31T11:52:50+02:00</time>
   </trkpt>
   <trkpt lat="47.882203" lon="6.775445">
    <ele>632</ele>
    <time>2020-08-31T11:52:55+02:00</time>
   </trkpt>
   <trkpt lat="47.882203" lon="6.774586">
    <ele>629</ele>
    <time>2020-08-31T11:53:00+02:00</time>
   </trkpt>
   <trkpt lat="47.882088" lon="6.7739">
    <ele>623</ele>
    <time>2020-08-31T11:53:05+02:00</time>
   </trkpt>
   <trkpt lat="47.8818" lon="6.773084">
    <ele>620</ele>
    <time>2020-08-31T11:53:10+02:00</time>
   </trkpt>
   <trkpt lat="47.88157" lon="6.772655">
    <ele>613</ele>
    <time>2020-08-31T11:53:15+02:00</time>
   </trkpt>
   <trkpt lat="47.881483" lon="6.772484">
    <ele>608</ele>
    <time>2020-08-31T11:53:20+02:00</time>
   </trkpt>
   <trkpt lat="47.881512" lon="6.772012">
    <ele>605</ele>
    <time>2020-08-31T11:53:25+02:00</time>
   </trkpt>
   <trkpt lat="47.881541" lon="6.771754">
    <ele>602</ele>
    <time>2020-08-31T11:53:30+02:00</time>
   </trkpt>
   <trkpt lat="47.881397" lon="6.771926">
    <ele>600</ele>
    <time>2020-08-31T11:53:35+02:00</time>
   </trkpt>
   <trkpt lat="47.881339" lon="6.771625">
    <ele>593</ele>
    <time>2020-08-31T11:53:40+02:00</time>
   </trkpt>
   <trkpt lat="47.881138" lon="6.771969">
    <ele>589</ele>
    <time>2020-08-31T11:53:45+02:00</time>
   </trkpt>
   <trkpt lat="47.880965" lon="6.772054">
    <ele>583</ele>
    <time>2020-08-31T11:53:50+02:00</time>
   </trkpt>
   <trkpt lat="47.880821" lon="6.772312">
    <ele>578</ele>
    <time>2020-08-31T11:53:55+02:00</time>
   </trkpt>
   <trkpt lat="47.880706" lon="6.772012">
    <ele>572</ele>
    <time>2020-08-31T11:54:00+02:00</time>
   </trkpt>
   <trkpt lat="47.880706" lon="6.771754">
    <ele>570</ele>
    <time>2020-08-31T11:54:05+02:00</time>
   </trkpt>
   <trkpt lat="47.880821" lon="6.771153">
    <ele>565</ele>
    <time>2020-08-31T11:54:10+02:00</time>
   </trkpt>
   <trkpt lat="47.880879" lon="6.770724">
    <ele>560</ele>
    <time>2020-08-31T11:54:15+02:00</time>
   </trkpt>
   <trkpt lat="47.880908" lon="6.770509">
    <ele>557</ele>
    <time>2020-08-31T11:54:20+02:00</time>
   </trkpt>
   <trkpt lat="47.880965" lon="6.770252">
    <ele>556</ele>
    <time>2020-08-31T11:54:25+02:00</time>
   </trkpt>
   <trkpt lat="47.880591" lon="6.769437">
    <ele>542</ele>
    <time>2020-08-31T11:54:30+02:00</time>
   </trkpt>
   <trkpt lat="47.880591" lon="6.769222">
    <ele>540</ele>
    <time>2020-08-31T11:54:35+02:00</time>
   </trkpt>
   <trkpt lat="47.880505" lon="6.769093">
    <ele>536</ele>
    <time>2020-08-31T11:54:40+02:00</time>
   </trkpt>
   <trkpt lat="47.88039" lon="6.76845">
    <ele>525</ele>
    <time>2020-08-31T11:54:45+02:00</time>
   </trkpt>
   <trkpt lat="47.880274" lon="6.767935">
    <ele>519</ele>
    <time>2020-08-31T11:54:50+02:00</time>
   </trkpt>
   <trkpt lat="47.880217" lon="6.767119">
    <ele>512</ele>
    <time>2020-08-31T11:54:55+02:00</time>
   </trkpt>
   <trkpt lat="47.880217" lon="6.766776">
    <ele>510</ele>
    <time>2020-08-31T11:55:00+02:00</time>
   </trkpt>
  </trkseg>
 </trk></gpx>